Sonnblick Mtn, Austria
Current Conditions -  °F | °C
As of 5:50 AM on Sunday 25 Jan 2015 (Local Time) from LOWS Reporting Station
Light Snow Light Snow  
Wind Chill: 30°   Ceiling: 1200
Heat Index: 30°   Visibility: 1.8mi
Dew Point: 30°   Wind: 2mph
Humidity: 100%   Direction: 20°NNE
Pressure: 30.18"   Gusts: NA
Location:  47.05°N, 12.95°E
Report Text: LOWS 250350Z 02002KT 3000 -SN FZBR SCT008 BKN012 M01/M01 Q1022 TEMPO 1500 SN VV005
Loading
Personal Weather Stations






























Interactive Weather Map New forecast layout! Learn more

10-Day Weather Forecast

Advertisements
Track Severe Weather on mobile